createdAt,value
2022-10-31T00:00:23.287Z,101382.09
2022-10-31T00:04:24.732Z,101381.41
2022-10-31T00:08:26.093Z,101378.22
2022-10-31T00:12:27.786Z,101379.47
2022-10-31T00:16:30.229Z,101385.22
2022-10-31T00:20:31.614Z,101382.63
2022-10-31T00:24:32.970Z,101391.00
2022-10-31T00:28:34.734Z,101406.38
2022-10-31T00:32:36.097Z,101405.47
2022-10-31T00:36:37.459Z,101416.25
2022-10-31T00:40:38.842Z,101418.31
2022-10-31T00:44:43.115Z,101410.44
2022-10-31T00:48:44.915Z,101423.78
2022-10-31T00:52:46.272Z,101412.31
2022-10-31T00:56:50.516Z,101407.38
2022-10-31T01:00:55.991Z,101416.28
2022-10-31T01:04:57.731Z,101429.31
2022-10-31T01:08:59.145Z,101420.72
2022-10-31T01:13:00.894Z,101425.56
2022-10-31T01:17:02.720Z,101427.22
2022-10-31T01:21:13.314Z,101428.34
2022-10-31T01:25:14.760Z,101420.59
2022-10-31T01:29:16.131Z,101411.06
2022-10-31T01:33:17.492Z,101420.78
2022-10-31T01:37:18.864Z,101421.22
2022-10-31T01:41:23.412Z,101424.13
2022-10-31T01:45:25.173Z,101423.44
2022-10-31T01:49:45.018Z,101417.44
2022-10-31T01:53:47.125Z,101421.59
2022-10-31T01:57:53.157Z,101431.06
2022-10-31T02:01:54.983Z,101435.81
2022-10-31T02:05:57.829Z,101438.59
2022-10-31T02:10:00.082Z,101444.28
2022-10-31T02:14:03.138Z,101445.78
2022-10-31T02:18:05.507Z,101444.06
2022-10-31T02:22:21.130Z,101444.97
2022-10-31T02:26:37.409Z,101446.34
2022-10-31T02:31:03.131Z,101443.69
2022-10-31T02:35:22.643Z,101439.50
2022-10-31T02:39:50.260Z,101441.38
2022-10-31T02:43:58.118Z,101446.00
2022-10-31T02:48:06.047Z,101444.28
2022-10-31T02:52:27.721Z,101450.16
2022-10-31T02:56:29.088Z,101445.56
2022-10-31T03:00:38.576Z,101454.13
2022-10-31T03:05:11.706Z,101453.78
2022-10-31T03:09:25.591Z,101452.38
2022-10-31T03:13:29.959Z,101463.88
2022-10-31T03:17:38.225Z,101473.31
2022-10-31T03:21:45.295Z,101482.34
2022-10-31T03:25:47.929Z,101487.13
2022-10-31T03:29:52.855Z,101498.91
2022-10-31T03:33:58.338Z,101500.16
2022-10-31T03:38:06.817Z,101502.91
2022-10-31T03:42:14.842Z,101507.84
2022-10-31T03:46:16.296Z,101509.25
2022-10-31T03:50:18.201Z,101509.47
2022-10-31T03:54:27.680Z,101517.06
2022-10-31T03:58:38.118Z,101515.22
2022-10-31T04:02:44.485Z,101505.28
2022-10-31T04:06:48.079Z,101512.88
2022-10-31T04:10:50.833Z,101528.38
2022-10-31T04:14:53.783Z,101523.41
2022-10-31T04:18:55.540Z,101518.19
2022-10-31T04:22:56.970Z,101510.56
2022-10-31T04:26:58.367Z,101524.22
2022-10-31T04:30:59.944Z,101512.84
2022-10-31T04:35:01.367Z,101524.44
2022-10-31T04:39:02.776Z,101524.03
2022-10-31T04:43:04.412Z,101520.22
2022-10-31T04:47:06.055Z,101523.38
2022-10-31T04:51:07.519Z,101520.81
2022-10-31T04:55:10.122Z,101518.88
2022-10-31T04:59:11.533Z,101523.53
2022-10-31T05:03:12.990Z,101536.97
2022-10-31T05:07:14.358Z,101534.13
2022-10-31T05:11:15.718Z,101536.28
2022-10-31T05:15:18.833Z,101535.47
2022-10-31T05:19:20.204Z,101537.19
2022-10-31T05:23:21.592Z,101536.28
2022-10-31T05:27:22.984Z,101538.75
2022-10-31T05:31:24.354Z,101552.19
2022-10-31T05:35:28.849Z,101547.59
2022-10-31T05:39:30.329Z,101539.66
2022-10-31T05:43:31.727Z,101549.47
2022-10-31T05:47:33.201Z,101540.03
2022-10-31T05:51:34.576Z,101550.94
2022-10-31T05:55:36.216Z,101553.78
2022-10-31T05:59:37.581Z,101552.19
2022-10-31T06:03:38.990Z,101553.63
2022-10-31T06:07:40.648Z,101554.16
2022-10-31T06:11:42.022Z,101567.53
2022-10-31T06:15:43.409Z,101558.63
2022-10-31T06:19:44.815Z,101558.13
2022-10-31T06:23:46.261Z,101562.88
2022-10-31T06:27:47.752Z,101571.44
2022-10-31T06:31:52.395Z,101586.44
2022-10-31T06:35:53.840Z,101585.09
2022-10-31T06:39:55.272Z,101603.25
2022-10-31T06:43:56.624Z,101601.41
2022-10-31T06:52:19.630Z,101603.66
2022-10-31T06:56:21.014Z,101606.69
2022-10-31T07:00:23.040Z,101604.00
2022-10-31T07:04:25.351Z,101603.03
2022-10-31T07:08:26.831Z,101617.69
2022-10-31T07:12:30.611Z,101620.72
2022-10-31T07:16:32.206Z,101610.13
2022-10-31T07:20:37.799Z,101627.50
2022-10-31T07:24:39.545Z,101629.50
2022-10-31T07:28:40.951Z,101628.38
2022-10-31T07:32:44.097Z,101634.28
2022-10-31T07:36:45.486Z,101636.16
2022-10-31T07:40:52.132Z,101640.13
2022-10-31T07:44:56.756Z,101639.22
2022-10-31T07:49:00.182Z,101646.72
2022-10-31T07:53:08.390Z,101650.63
2022-10-31T07:57:09.849Z,101646.56
2022-10-31T08:05:17.607Z,101648.41
2022-10-31T08:09:18.981Z,101638.59
2022-10-31T08:13:20.341Z,101641.75
2022-10-31T08:17:21.795Z,101660.03
2022-10-31T08:21:23.552Z,101657.34
2022-10-31T08:25:25.188Z,101663.72
2022-10-31T08:29:26.547Z,101666.28
2022-10-31T08:33:28.065Z,101661.06
2022-10-31T08:37:29.472Z,101665.66
2022-10-31T08:41:31.279Z,101663.09
2022-10-31T08:45:34.601Z,101660.00
2022-10-31T08:49:36.007Z,101647.94
2022-10-31T08:53:37.831Z,101655.34
2022-10-31T08:57:39.342Z,101659.13
2022-10-31T09:01:40.813Z,101666.53
2022-10-31T09:05:42.883Z,101663.44
2022-10-31T09:09:44.339Z,101664.41
2022-10-31T09:13:45.725Z,101671.25
2022-10-31T09:17:48.804Z,101667.44
2022-10-31T09:21:53.524Z,101668.38
2022-10-31T09:25:55.690Z,101670.53
2022-10-31T09:29:57.119Z,101666.53
2022-10-31T09:33:58.527Z,101667.78
2022-10-31T09:38:02.163Z,101672.16
2022-10-31T09:42:34.522Z,101682.56
2022-10-31T09:46:58.498Z,101685.47
2022-10-31T09:51:07.771Z,101683.06
2022-10-31T09:55:15.722Z,101678.47
2022-10-31T09:59:31.294Z,101680.50
2022-10-31T10:03:43.128Z,101692.25
2022-10-31T10:08:09.326Z,101681.97
2022-10-31T10:12:29.903Z,101670.00
2022-10-31T10:16:40.014Z,101665.63
2022-10-31T10:20:50.239Z,101658.75
2022-10-31T10:25:16.918Z,101653.44
2022-10-31T10:29:41.577Z,101656.19
2022-10-31T10:33:57.032Z,101646.00
2022-10-31T10:38:11.271Z,101653.22
2022-10-31T10:42:34.278Z,101646.56
2022-10-31T10:47:10.861Z,101646.44
2022-10-31T10:51:31.833Z,101641.00
2022-10-31T10:55:57.864Z,101644.91
2022-10-31T11:00:03.094Z,101641.88
2022-10-31T11:04:15.806Z,101641.00
2022-10-31T11:08:32.608Z,101639.50
2022-10-31T11:12:34.875Z,101632.50
2022-10-31T11:16:41.237Z,101635.78
2022-10-31T11:20:52.822Z,101637.63
2022-10-31T11:24:54.220Z,101633.97
2022-10-31T11:28:59.894Z,101637.63
2022-10-31T11:33:01.608Z,101625.84
2022-10-31T11:37:14.175Z,101625.41
2022-10-31T11:41:18.544Z,101614.38
2022-10-31T11:45:34.856Z,101621.97
2022-10-31T11:49:42.047Z,101618.53
2022-10-31T11:53:56.686Z,101625.34
2022-10-31T11:58:02.029Z,101612.91
2022-10-31T12:02:19.682Z,101616.47
2022-10-31T12:06:44.383Z,101611.66
2022-10-31T12:11:02.245Z,101611.31
2022-10-31T12:15:28.915Z,101601.22
2022-10-31T12:19:40.620Z,101600.34
2022-10-31T12:24:07.468Z,101599.44
2022-10-31T12:28:33.332Z,101597.50
2022-10-31T12:32:44.209Z,101590.88
2022-10-31T12:37:01.033Z,101587.13
2022-10-31T12:41:30.776Z,101587.88
2022-10-31T12:45:57.299Z,101579.13
2022-10-31T12:50:17.581Z,101571.84
2022-10-31T12:54:31.589Z,101573.97
2022-10-31T12:58:37.870Z,101568.19
2022-10-31T13:02:47.512Z,101565.13
2022-10-31T13:06:54.900Z,101559.72
2022-10-31T13:11:11.577Z,101561.94
2022-10-31T13:15:23.324Z,101561.44
2022-10-31T13:19:40.529Z,101557.44
2022-10-31T13:23:50.928Z,101558.63
2022-10-31T13:28:04.952Z,101552.91
2022-10-31T13:32:08.127Z,101550.84
2022-10-31T13:36:20.887Z,101548.81
2022-10-31T13:41:00.499Z,101545.44
2022-10-31T13:45:13.417Z,101546.94
2022-10-31T13:49:39.487Z,101544.69
2022-10-31T13:53:59.858Z,101542.00
2022-10-31T13:58:04.140Z,101538.88
2022-10-31T14:02:16.984Z,101533.75
2022-10-31T14:06:18.792Z,101522.06
2022-10-31T14:10:31.143Z,101524.09
2022-10-31T14:14:44.409Z,101518.47
2022-10-31T14:18:51.549Z,101518.84
2022-10-31T14:22:53.218Z,101515.19
2022-10-31T14:27:00.744Z,101515.13
2022-10-31T14:31:02.543Z,101515.28
2022-10-31T14:35:04.310Z,101512.97
2022-10-31T14:39:24.701Z,101506.84
2022-10-31T14:43:37.900Z,101507.19
2022-10-31T14:47:57.774Z,101509.63
2022-10-31T14:52:00.123Z,101499.09
2022-10-31T14:56:06.709Z,101500.66
2022-10-31T15:00:16.573Z,101500.38
2022-10-31T15:04:25.527Z,101501.31
2022-10-31T15:08:41.782Z,101501.03
2022-10-31T15:12:43.259Z,101499.22
2022-10-31T15:16:44.885Z,101501.09
2022-10-31T15:20:47.309Z,101502.81
2022-10-31T15:24:50.184Z,101506.06
2022-10-31T15:29:06.031Z,101501.13
2022-10-31T15:33:21.648Z,101506.94
2022-10-31T15:37:25.906Z,101501.00
2022-10-31T15:41:35.234Z,101497.84
2022-10-31T15:45:36.697Z,101490.28
2022-10-31T15:49:41.732Z,101489.94
2022-10-31T15:53:52.241Z,101488.06
2022-10-31T15:58:01.519Z,101500.69
2022-10-31T16:02:10.183Z,101506.81
2022-10-31T16:06:22.066Z,101512.63
2022-10-31T16:10:26.187Z,101506.63
2022-10-31T16:14:32.877Z,101499.69
2022-10-31T16:18:38.435Z,101502.91
2022-10-31T16:22:40.197Z,101512.47
2022-10-31T16:26:41.862Z,101513.97
2022-10-31T16:30:48.406Z,101507.25
2022-10-31T16:35:01.960Z,101515.22
2022-10-31T16:39:04.037Z,101507.25
2022-10-31T16:43:06.101Z,101495.94
2022-10-31T16:47:07.521Z,101496.91
2022-10-31T16:51:09.124Z,101505.25
2022-10-31T16:55:15.919Z,101492.38
2022-10-31T16:59:17.386Z,101500.09
2022-10-31T17:03:19.444Z,101498.06
2022-10-31T17:07:20.886Z,101497.50
2022-10-31T17:11:26.407Z,101493.38
2022-10-31T17:15:29.400Z,101497.75
2022-10-31T17:19:30.864Z,101488.81
2022-10-31T17:23:33.358Z,101481.78
2022-10-31T17:27:34.743Z,101484.47
2022-10-31T17:31:36.758Z,101480.59
2022-10-31T17:35:38.250Z,101470.31
2022-10-31T17:39:39.850Z,101470.84
2022-10-31T17:43:41.275Z,101473.13
2022-10-31T17:47:42.704Z,101459.53
2022-10-31T17:51:44.096Z,101465.19
2022-10-31T17:55:45.743Z,101472.16
2022-10-31T17:59:47.219Z,101467.63
2022-10-31T18:03:48.641Z,101468.66
2022-10-31T18:07:51.216Z,101468.56
2022-10-31T18:11:52.704Z,101469.31
2022-10-31T18:15:55.245Z,101464.44
2022-10-31T18:19:56.646Z,101461.63
2022-10-31T18:23:59.713Z,101462.53
2022-10-31T18:28:02.491Z,101464.97
2022-10-31T18:32:09.048Z,101466.00
2022-10-31T18:36:11.986Z,101454.41
2022-10-31T18:40:13.506Z,101458.44
2022-10-31T18:44:14.880Z,101450.47
2022-10-31T18:48:17.245Z,101447.75
2022-10-31T18:52:18.688Z,101444.50
2022-10-31T18:56:20.848Z,101442.38
2022-10-31T19:00:22.322Z,101436.50
2022-10-31T19:04:23.874Z,101444.31
2022-10-31T19:08:25.540Z,101439.63
2022-10-31T19:12:26.980Z,101435.69
2022-10-31T19:16:29.131Z,101439.53
2022-10-31T19:20:31.171Z,101432.50
2022-10-31T19:24:32.643Z,101425.34
2022-10-31T19:28:35.824Z,101428.63
2022-10-31T19:32:37.353Z,101420.06
2022-10-31T19:36:39.855Z,101411.03
2022-10-31T19:40:41.314Z,101404.63
2022-10-31T19:44:42.751Z,101404.66
2022-10-31T19:48:44.149Z,101392.84
2022-10-31T19:52:46.532Z,101387.13
2022-10-31T19:56:47.988Z,101386.94
2022-10-31T20:00:49.513Z,101388.53
2022-10-31T20:04:51.000Z,101373.78
2022-10-31T20:08:53.205Z,101385.97
2022-10-31T20:12:54.626Z,101369.66
2022-10-31T20:16:56.046Z,101368.31
2022-10-31T20:21:05.881Z,101379.63
2022-10-31T20:25:07.625Z,101387.78
2022-10-31T20:29:13.289Z,101376.97
2022-10-31T20:33:14.716Z,101376.69
2022-10-31T20:37:16.095Z,101375.34
2022-10-31T20:41:18.105Z,101384.06
2022-10-31T20:45:19.467Z,101379.34
2022-10-31T20:49:21.172Z,101381.75
2022-10-31T20:53:22.631Z,101371.31
2022-10-31T20:57:24.133Z,101367.00
2022-10-31T21:01:31.160Z,101364.28
2022-10-31T21:05:32.720Z,101359.69
2022-10-31T21:09:34.164Z,101352.59
2022-10-31T21:13:40.679Z,101363.25
2022-10-31T21:17:42.910Z,101351.09
2022-10-31T21:21:44.391Z,101346.41
2022-10-31T21:25:45.894Z,101337.75
2022-10-31T21:29:47.282Z,101336.44
2022-10-31T21:33:48.812Z,101332.47
2022-10-31T21:37:50.201Z,101335.34
2022-10-31T21:41:51.568Z,101331.53
2022-10-31T21:45:53.016Z,101329.03
2022-10-31T21:49:54.389Z,101316.25
2022-10-31T21:54:15.341Z,101298.47
2022-10-31T21:58:16.768Z,101317.03
2022-10-31T22:02:18.199Z,101331.25
2022-10-31T22:06:19.816Z,101329.56
2022-10-31T22:10:21.300Z,101314.41
2022-10-31T22:14:22.734Z,101316.88
2022-10-31T22:18:24.135Z,101321.63
2022-10-31T22:22:25.514Z,101318.22
2022-10-31T22:26:27.427Z,101310.56
2022-10-31T22:30:28.849Z,101308.63
2022-10-31T22:34:30.366Z,101321.06
2022-10-31T22:38:39.961Z,101310.84
2022-10-31T22:42:41.272Z,101297.50
2022-10-31T22:46:42.693Z,101294.63
2022-10-31T22:50:44.150Z,101279.19
2022-10-31T22:54:45.535Z,101266.94
2022-10-31T22:58:47.923Z,101260.28
2022-10-31T23:02:49.349Z,101253.03
2022-10-31T23:06:50.798Z,101252.81
2022-10-31T23:10:52.562Z,101249.50
2022-10-31T23:14:53.983Z,101257.28
2022-10-31T23:18:55.391Z,101260.63
2022-10-31T23:22:56.863Z,101252.56
2022-10-31T23:27:08.554Z,101240.97
2022-10-31T23:31:10.082Z,101243.03
2022-10-31T23:35:11.579Z,101238.47
2022-10-31T23:39:13.008Z,101232.63
2022-10-31T23:43:14.424Z,101232.25
2022-10-31T23:47:16.669Z,101220.47
2022-10-31T23:51:18.475Z,101217.78
2022-10-31T23:55:19.932Z,101208.09
2022-10-31T23:59:22.776Z,101191.94
